createdAt,value
2019-03-25T00:01:12.019Z,62.35
2019-03-25T00:03:40.564Z,62.08
2019-03-25T00:06:09.043Z,62.92
2019-03-25T00:08:37.523Z,62.60
2019-03-25T00:11:06.148Z,62.27
2019-03-25T00:13:34.627Z,62.09
2019-03-25T00:16:03.188Z,62.18
2019-03-25T00:18:31.668Z,62.39
2019-03-25T00:21:00.163Z,62.96
2019-03-25T00:23:28.665Z,62.63
2019-03-25T00:25:57.147Z,63.17
2019-03-25T00:28:25.695Z,62.27
2019-03-25T00:30:54.177Z,61.89
2019-03-25T00:33:22.660Z,61.49
2019-03-25T00:35:51.153Z,61.14
2019-03-25T00:38:19.730Z,61.72
2019-03-25T00:40:48.212Z,61.99
2019-03-25T00:43:16.722Z,61.84
2019-03-25T00:45:45.203Z,61.36
2019-03-25T00:48:13.770Z,61.36
2019-03-25T00:50:42.251Z,60.83
2019-03-25T00:53:10.752Z,60.94
2019-03-25T00:55:39.260Z,61.19
2019-03-25T00:58:07.776Z,61.57
2019-03-25T01:00:36.335Z,61.58
2019-03-25T01:03:05.058Z,61.49
2019-03-25T01:05:33.937Z,61.22
2019-03-25T01:08:02.494Z,61.36
2019-03-25T01:10:31.006Z,61.11
2019-03-25T01:12:59.482Z,61.44
2019-03-25T01:15:27.976Z,62.37
2019-03-25T01:17:56.455Z,62.23
2019-03-25T01:20:25.038Z,62.92
2019-03-25T01:22:53.620Z,62.82
2019-03-25T01:25:22.136Z,62.26
2019-03-25T01:27:50.615Z,62.63
2019-03-25T01:30:19.182Z,63.74
2019-03-25T01:32:47.663Z,64.14
2019-03-25T01:35:16.186Z,63.04
2019-03-25T01:37:44.660Z,63.71
2019-03-25T01:40:14.473Z,64.41
2019-03-25T01:42:42.961Z,64.69
2019-03-25T01:45:11.677Z,64.72
2019-03-25T01:47:40.173Z,65.35
2019-03-25T01:50:08.804Z,64.44
2019-03-25T01:52:37.307Z,65.20
2019-03-25T01:55:13.497Z,64.88
2019-03-25T01:57:36.435Z,63.77
2019-03-25T02:00:07.373Z,63.59
2019-03-25T02:02:35.841Z,64.79
2019-03-25T02:05:05.579Z,64.30
2019-03-25T02:07:34.164Z,64.48
2019-03-25T02:10:02.925Z,64.37
2019-03-25T02:12:31.396Z,64.34
2019-03-25T02:14:59.881Z,64.33
2019-03-25T02:17:28.379Z,64.13
2019-03-25T02:19:56.847Z,63.93
2019-03-25T02:22:25.485Z,64.31
2019-03-25T02:24:54.012Z,64.49
2019-03-25T02:27:22.528Z,64.63
2019-03-25T02:29:51.024Z,64.62
2019-03-25T02:32:19.586Z,65.33
2019-03-25T02:34:48.103Z,65.27
2019-03-25T02:37:16.583Z,65.54
2019-03-25T02:39:45.077Z,65.00
2019-03-25T02:42:13.571Z,65.29
2019-03-25T02:44:42.107Z,66.87
2019-03-25T02:47:10.545Z,65.56
2019-03-25T02:49:39.034Z,65.43
2019-03-25T02:52:07.517Z,64.83
2019-03-25T02:54:36.037Z,65.16
2019-03-25T02:57:04.532Z,64.50
2019-03-25T02:59:33.034Z,63.82
2019-03-25T03:02:01.513Z,63.58
2019-03-25T03:04:30.016Z,63.22
2019-03-25T03:06:58.565Z,63.30
2019-03-25T03:09:27.047Z,63.36
2019-03-25T03:11:55.537Z,63.04
2019-03-25T03:14:24.024Z,63.21
2019-03-25T03:16:52.535Z,62.36
2019-03-25T03:19:21.092Z,62.20
2019-03-25T03:21:49.707Z,62.45
2019-03-25T03:24:18.187Z,62.45
2019-03-25T03:26:46.692Z,62.44
2019-03-25T03:29:15.163Z,63.07
2019-03-25T03:31:43.678Z,63.38
2019-03-25T03:34:12.155Z,61.95
2019-03-25T03:36:40.666Z,61.09
2019-03-25T03:39:09.180Z,61.25
2019-03-25T03:41:37.665Z,61.41
2019-03-25T03:44:06.197Z,60.91
2019-03-25T03:46:34.690Z,60.54
2019-03-25T03:49:03.170Z,60.59
2019-03-25T03:51:31.833Z,60.43
2019-03-25T03:54:00.574Z,60.22
2019-03-25T03:56:30.878Z,59.60
2019-03-25T03:59:00.865Z,60.08
2019-03-25T04:01:29.443Z,59.42
2019-03-25T04:03:57.927Z,59.22
2019-03-25T04:06:26.430Z,59.03
2019-03-25T04:08:54.927Z,58.95
2019-03-25T04:11:23.418Z,58.95
2019-03-25T04:13:51.930Z,58.95
2019-03-25T04:16:20.421Z,58.24
2019-03-25T04:18:48.902Z,58.37
2019-03-25T04:21:17.504Z,58.08
2019-03-25T04:23:46.536Z,58.05
2019-03-25T04:26:27.748Z,58.22
2019-03-25T04:28:45.398Z,58.20
2019-03-25T04:31:13.882Z,58.19
2019-03-25T04:33:43.881Z,58.14
2019-03-25T04:36:12.672Z,59.14
2019-03-25T04:38:41.201Z,58.67
2019-03-25T04:41:09.689Z,58.91
2019-03-25T04:43:38.165Z,59.09
2019-03-25T04:46:06.691Z,59.25
2019-03-25T04:48:35.165Z,59.19
2019-03-25T04:51:03.681Z,59.46
2019-03-25T04:53:32.162Z,59.10
2019-03-25T04:56:00.677Z,58.88
2019-03-25T04:58:29.156Z,59.32
2019-03-25T05:00:58.947Z,59.47
2019-03-25T05:03:27.460Z,59.80
2019-03-25T05:05:55.941Z,59.48
2019-03-25T05:08:24.424Z,59.34
2019-03-25T05:10:52.929Z,59.18
2019-03-25T05:13:21.439Z,58.82
2019-03-25T05:15:49.936Z,59.06
2019-03-25T05:18:18.414Z,58.74
2019-03-25T05:20:46.897Z,58.31
2019-03-25T05:23:15.399Z,58.61
2019-03-25T05:25:43.875Z,58.24
2019-03-25T05:28:12.413Z,57.71
2019-03-25T05:30:40.900Z,58.54
2019-03-25T05:33:09.392Z,58.19
2019-03-25T05:35:37.888Z,58.00
2019-03-25T05:38:06.376Z,59.59
2019-03-25T05:40:34.877Z,59.61
2019-03-25T05:43:03.921Z,59.39
2019-03-25T05:45:32.501Z,60.27
2019-03-25T05:48:00.983Z,61.08
2019-03-25T05:50:29.468Z,60.20
2019-03-25T05:52:57.987Z,59.79
2019-03-25T05:55:26.467Z,59.88
2019-03-25T05:57:54.980Z,59.45
2019-03-25T06:00:25.098Z,58.57
2019-03-25T06:02:53.575Z,58.94
2019-03-25T06:05:22.069Z,58.51
2019-03-25T06:07:50.548Z,58.80
2019-03-25T06:10:19.065Z,58.85
2019-03-25T06:12:47.543Z,59.47
2019-03-25T06:15:17.433Z,58.65
2019-03-25T06:17:45.914Z,58.74
2019-03-25T06:20:14.839Z,58.99
2019-03-25T06:22:43.487Z,58.45
2019-03-25T06:25:12.065Z,57.10
2019-03-25T06:27:40.548Z,57.37
2019-03-25T06:30:10.405Z,58.83
2019-03-25T06:32:38.885Z,58.02
2019-03-25T06:35:09.139Z,58.03
2019-03-25T06:37:37.705Z,57.01
2019-03-25T06:40:09.495Z,56.78
2019-03-25T06:42:37.970Z,56.38
2019-03-25T06:45:09.989Z,56.34
2019-03-25T06:47:38.471Z,54.62
2019-03-25T06:50:08.297Z,55.01
2019-03-25T06:52:36.978Z,54.91
2019-03-25T06:55:07.933Z,55.29
2019-03-25T06:57:38.499Z,54.56
2019-03-25T07:00:08.271Z,53.82
2019-03-25T07:02:36.746Z,54.28
2019-03-25T07:05:07.012Z,53.98
2019-03-25T07:07:35.512Z,51.64
2019-03-25T07:10:05.163Z,52.25
2019-03-25T07:12:33.686Z,51.41
2019-03-25T07:15:02.168Z,51.98
2019-03-25T07:17:30.653Z,50.59
2019-03-25T07:19:59.149Z,51.14
2019-03-25T07:22:27.672Z,49.07
2019-03-25T07:24:56.185Z,47.82
2019-03-25T07:27:24.674Z,48.25
2019-03-25T07:29:53.157Z,47.27
2019-03-25T07:32:21.658Z,48.45
2019-03-25T07:34:50.154Z,48.82
2019-03-25T07:37:18.647Z,48.19
2019-03-25T07:39:47.128Z,46.58
2019-03-25T07:42:15.643Z,46.73
2019-03-25T07:44:44.230Z,46.04
2019-03-25T07:47:12.742Z,46.39
2019-03-25T07:49:41.243Z,45.89
2019-03-25T07:52:09.762Z,46.60
2019-03-25T07:54:38.281Z,46.41
2019-03-25T07:57:06.770Z,47.67
2019-03-25T07:59:35.270Z,48.38
2019-03-25T08:02:03.760Z,49.73
2019-03-25T08:04:32.284Z,46.95
2019-03-25T08:07:00.773Z,47.04
2019-03-25T08:09:29.305Z,46.67
2019-03-25T08:11:57.823Z,46.62
2019-03-25T08:14:26.342Z,47.05
2019-03-25T08:16:54.838Z,46.31
2019-03-25T08:19:23.320Z,45.54
2019-03-25T08:21:51.834Z,47.17
2019-03-25T08:24:21.572Z,47.56
2019-03-25T08:26:50.026Z,44.52
2019-03-25T08:29:18.548Z,45.08
2019-03-25T08:31:47.078Z,43.30
2019-03-25T08:34:15.584Z,45.36
2019-03-25T08:36:44.093Z,43.17
2019-03-25T08:39:12.580Z,43.67
2019-03-25T08:41:41.072Z,41.74
2019-03-25T08:44:09.567Z,41.33
2019-03-25T08:46:38.083Z,40.64
2019-03-25T08:49:06.639Z,41.20
2019-03-25T08:51:35.137Z,40.45
2019-03-25T08:54:03.721Z,41.83
2019-03-25T08:56:32.203Z,40.36
2019-03-25T08:59:00.796Z,39.22
2019-03-25T09:01:29.313Z,40.25
2019-03-25T09:03:57.799Z,41.17
2019-03-25T09:06:26.372Z,42.87
2019-03-25T09:08:54.956Z,41.99
2019-03-25T09:11:23.474Z,40.35
2019-03-25T09:13:51.956Z,40.82
2019-03-25T09:16:20.590Z,41.73
2019-03-25T09:18:49.109Z,43.99
2019-03-25T09:21:17.626Z,42.04
2019-03-25T09:23:46.182Z,42.10
2019-03-25T09:26:14.744Z,42.26
2019-03-25T09:28:43.224Z,39.81
2019-03-25T09:31:13.656Z,40.50
2019-03-25T09:33:43.717Z,40.15
2019-03-25T09:36:12.466Z,40.84
2019-03-25T09:38:41.032Z,41.02
2019-03-25T09:41:09.776Z,41.49
2019-03-25T09:43:38.424Z,44.54
2019-03-25T09:46:06.974Z,44.48
2019-03-25T09:48:35.469Z,45.59
2019-03-25T09:51:04.494Z,48.23
2019-03-25T09:53:33.096Z,48.36
2019-03-25T09:56:01.614Z,47.15
2019-03-25T09:58:36.229Z,47.30
2019-03-25T10:01:00.414Z,49.95
2019-03-25T10:03:28.909Z,46.30
2019-03-25T10:05:57.689Z,45.79
2019-03-25T10:08:26.168Z,42.04
2019-03-25T10:10:54.683Z,42.36
2019-03-25T10:13:23.257Z,38.95
2019-03-25T10:15:51.769Z,39.46
2019-03-25T10:18:20.285Z,44.56
2019-03-25T10:20:48.778Z,44.87
2019-03-25T10:23:17.292Z,45.48
2019-03-25T10:25:45.783Z,46.95
2019-03-25T10:28:14.278Z,50.40
2019-03-25T10:30:42.788Z,50.92
2019-03-25T10:33:11.440Z,54.00
2019-03-25T10:35:40.012Z,56.32
2019-03-25T10:38:19.150Z,58.33
2019-03-25T10:40:38.737Z,57.92
2019-03-25T10:43:07.219Z,56.62
2019-03-25T10:45:35.810Z,56.06
2019-03-25T10:48:04.430Z,52.96
2019-03-25T10:50:32.944Z,50.07
2019-03-25T10:53:01.430Z,52.76
2019-03-25T10:55:29.941Z,49.35
2019-03-25T10:57:58.423Z,46.63
2019-03-25T11:00:26.938Z,43.88
2019-03-25T11:02:55.578Z,44.08
2019-03-25T11:05:24.096Z,44.83
2019-03-25T11:07:52.710Z,42.73
2019-03-25T11:10:21.525Z,44.90
2019-03-25T11:12:50.037Z,44.62
2019-03-25T11:15:18.886Z,45.08
2019-03-25T11:17:47.460Z,42.17
2019-03-25T11:20:16.587Z,43.28
2019-03-25T11:22:45.146Z,45.00
2019-03-25T11:25:14.213Z,45.85
2019-03-25T11:27:42.783Z,43.48
2019-03-25T11:30:13.035Z,43.00
2019-03-25T11:32:41.550Z,44.13
2019-03-25T11:35:10.807Z,44.31
2019-03-25T11:37:39.369Z,41.83
2019-03-25T11:40:09.515Z,43.49
2019-03-25T11:42:37.993Z,42.80
2019-03-25T11:45:08.822Z,40.47
2019-03-25T11:47:37.438Z,41.14
2019-03-25T11:50:08.744Z,40.07
2019-03-25T11:52:37.240Z,39.87
2019-03-25T11:55:07.705Z,44.55
2019-03-25T11:57:36.253Z,50.20
2019-03-25T12:00:07.961Z,52.24
2019-03-25T12:02:36.571Z,54.33
2019-03-25T12:05:07.123Z,54.50
2019-03-25T12:07:35.900Z,53.07
2019-03-25T12:10:06.248Z,52.15
2019-03-25T12:12:34.726Z,50.65
2019-03-25T12:15:03.503Z,50.43
2019-03-25T12:17:31.976Z,49.46
2019-03-25T12:20:00.568Z,48.00
2019-03-25T12:22:28.979Z,47.02
2019-03-25T12:24:57.455Z,46.18
2019-03-25T12:27:26.016Z,47.24
2019-03-25T12:29:54.534Z,46.64
2019-03-25T12:32:23.072Z,47.52
2019-03-25T12:34:51.560Z,47.33
2019-03-25T12:37:20.101Z,46.07
2019-03-25T12:39:48.605Z,41.98
2019-03-25T12:42:17.074Z,42.01
2019-03-25T12:44:45.560Z,37.15
2019-03-25T12:47:14.168Z,37.45
2019-03-25T12:49:42.639Z,37.26
2019-03-25T12:52:11.110Z,38.84
2019-03-25T12:54:39.590Z,38.54
2019-03-25T12:57:08.128Z,38.52
2019-03-25T12:59:41.244Z,37.98
2019-03-25T13:02:06.798Z,38.81
2019-03-25T13:04:35.301Z,37.55
2019-03-25T13:07:03.873Z,37.88
2019-03-25T13:09:32.349Z,37.84
2019-03-25T13:12:00.849Z,35.87
2019-03-25T13:14:29.328Z,35.28
2019-03-25T13:16:57.800Z,34.49
2019-03-25T13:19:26.297Z,33.91
2019-03-25T13:21:54.769Z,34.38
2019-03-25T13:24:23.252Z,34.71
2019-03-25T13:26:51.723Z,35.48
2019-03-25T13:29:20.205Z,33.75
2019-03-25T13:31:48.691Z,35.69
2019-03-25T13:34:17.284Z,36.58
2019-03-25T13:36:45.767Z,36.28
2019-03-25T13:39:14.323Z,34.85
2019-03-25T13:41:42.820Z,34.00
2019-03-25T13:44:11.305Z,33.50
2019-03-25T13:46:39.777Z,33.64
2019-03-25T13:49:08.285Z,35.95
2019-03-25T13:51:36.786Z,35.67
2019-03-25T13:54:06.987Z,34.84
2019-03-25T13:56:35.760Z,34.68
2019-03-25T13:59:04.300Z,34.76
2019-03-25T14:01:32.803Z,36.08
2019-03-25T14:04:01.374Z,37.28
2019-03-25T14:06:29.943Z,37.26
2019-03-25T14:08:58.446Z,38.76
2019-03-25T14:11:26.999Z,38.33
2019-03-25T14:13:55.483Z,39.48
2019-03-25T14:16:25.468Z,39.58
2019-03-25T14:18:54.025Z,41.68
2019-03-25T14:21:22.483Z,45.68
2019-03-25T14:23:50.973Z,49.19
2019-03-25T14:26:19.547Z,51.34
2019-03-25T14:28:48.015Z,53.14
2019-03-25T14:31:16.565Z,55.63
2019-03-25T14:33:45.302Z,57.73
2019-03-25T14:36:13.804Z,57.96
2019-03-25T14:38:42.385Z,59.67
2019-03-25T14:41:10.854Z,61.78
2019-03-25T14:43:39.356Z,66.49
2019-03-25T14:46:07.985Z,68.39
2019-03-25T14:48:36.462Z,68.66
2019-03-25T14:51:05.118Z,67.87
2019-03-25T14:53:33.620Z,68.10
2019-03-25T14:56:02.115Z,67.30
2019-03-25T14:58:30.582Z,67.42
2019-03-25T15:00:59.063Z,65.87
2019-03-25T15:03:27.544Z,66.81
2019-03-25T15:05:56.016Z,66.29
2019-03-25T15:08:24.480Z,65.04
2019-03-25T15:10:53.898Z,65.67
2019-03-25T15:13:22.461Z,67.76
2019-03-25T15:15:50.939Z,69.10
2019-03-25T15:18:19.403Z,70.67
2019-03-25T15:20:47.867Z,69.27
2019-03-25T15:23:16.351Z,69.51
2019-03-25T15:25:45.387Z,69.02
2019-03-25T15:28:13.954Z,68.14
2019-03-25T15:30:42.693Z,67.56
2019-03-25T15:33:11.169Z,68.31
2019-03-25T15:35:39.710Z,67.75
2019-03-25T15:38:08.270Z,68.77
2019-03-25T15:40:36.814Z,66.24
2019-03-25T15:43:05.470Z,66.42
2019-03-25T15:45:33.970Z,66.42
2019-03-25T15:48:02.971Z,67.81
2019-03-25T15:50:31.466Z,65.39
2019-03-25T15:52:59.932Z,64.07
2019-03-25T15:55:28.504Z,63.81
2019-03-25T15:57:56.967Z,63.03
2019-03-25T16:00:25.681Z,63.93
2019-03-25T16:02:54.193Z,66.05
2019-03-25T16:05:22.744Z,63.51
2019-03-25T16:07:51.207Z,62.17
2019-03-25T16:10:21.728Z,62.01
2019-03-25T16:12:50.195Z,62.63
2019-03-25T16:15:37.981Z,63.54
2019-03-25T16:18:08.056Z,62.11
2019-03-25T16:20:36.588Z,62.90
2019-03-25T16:23:05.293Z,62.67
2019-03-25T16:25:33.847Z,61.65
2019-03-25T16:28:02.316Z,61.10
2019-03-25T16:30:30.803Z,60.45
2019-03-25T16:32:59.305Z,60.30
2019-03-25T16:35:27.817Z,60.73
2019-03-25T16:37:56.629Z,59.88
2019-03-25T16:40:25.766Z,60.18
2019-03-25T16:42:54.235Z,58.78
2019-03-25T16:45:22.707Z,59.07
2019-03-25T16:47:51.208Z,58.41
2019-03-25T16:50:19.674Z,58.65
2019-03-25T16:52:48.156Z,57.84
2019-03-25T16:55:16.649Z,57.27
2019-03-25T16:57:45.116Z,57.72
2019-03-25T17:00:13.862Z,59.13
2019-03-25T17:02:42.334Z,60.13
2019-03-25T17:05:11.067Z,59.84
2019-03-25T17:07:39.550Z,59.78
2019-03-25T17:10:08.273Z,60.00
2019-03-25T17:12:38.434Z,59.96
2019-03-25T17:15:10.335Z,59.89
2019-03-25T17:17:38.159Z,60.41
2019-03-25T17:20:07.194Z,63.51
2019-03-25T17:22:35.696Z,64.84
2019-03-25T17:25:05.806Z,65.66
2019-03-25T17:27:34.293Z,64.63
2019-03-25T17:30:02.871Z,64.35
2019-03-25T17:32:31.333Z,65.39
2019-03-25T17:34:59.834Z,65.92
2019-03-25T17:37:28.339Z,65.35
2019-03-25T17:39:56.807Z,64.14
2019-03-25T17:42:25.273Z,63.31
2019-03-25T17:44:53.764Z,63.33
2019-03-25T17:47:22.235Z,63.67
2019-03-25T17:49:50.711Z,65.20
2019-03-25T17:52:19.185Z,65.50
2019-03-25T17:54:47.680Z,64.47
2019-03-25T17:57:18.194Z,64.19
2019-03-25T17:59:46.712Z,64.65
2019-03-25T18:02:15.194Z,64.99
2019-03-25T18:04:43.678Z,65.43
2019-03-25T18:07:12.186Z,64.76
2019-03-25T18:09:40.661Z,65.39
2019-03-25T18:12:09.244Z,66.26
2019-03-25T18:14:37.712Z,66.67
2019-03-25T18:17:06.282Z,66.40
2019-03-25T18:19:34.755Z,66.57
2019-03-25T18:22:04.906Z,66.17
2019-03-25T18:24:33.375Z,67.43
2019-03-25T18:27:01.851Z,68.07
2019-03-25T18:29:30.364Z,66.71
2019-03-25T18:32:00.738Z,65.75
2019-03-25T18:34:29.243Z,65.72
2019-03-25T18:36:57.728Z,66.08
2019-03-25T18:39:26.231Z,65.78
2019-03-25T18:41:56.214Z,66.04
2019-03-25T18:44:24.875Z,66.26
2019-03-25T18:46:53.419Z,66.01
2019-03-25T18:49:21.927Z,66.42
2019-03-25T18:51:50.399Z,65.98
2019-03-25T18:54:19.101Z,65.78
2019-03-25T18:56:47.728Z,66.67
2019-03-25T18:59:16.269Z,65.84
2019-03-25T19:01:54.107Z,66.82
2019-03-25T19:04:15.009Z,66.45
2019-03-25T19:06:45.300Z,65.22
2019-03-25T19:09:13.808Z,65.07
2019-03-25T19:11:42.293Z,65.56
2019-03-25T19:14:10.766Z,65.07
2019-03-25T19:16:39.272Z,65.68
2019-03-25T19:19:07.768Z,65.68
2019-03-25T19:21:36.225Z,65.32
2019-03-25T19:24:04.705Z,65.30
2019-03-25T19:26:33.256Z,65.25
2019-03-25T19:29:01.850Z,65.48
2019-03-25T19:31:30.355Z,65.79
2019-03-25T19:33:58.837Z,65.52
2019-03-25T19:36:27.321Z,64.45
2019-03-25T19:38:55.785Z,64.51
2019-03-25T19:41:32.121Z,63.83
2019-03-25T19:43:54.488Z,63.39
2019-03-25T19:46:23.229Z,63.46
2019-03-25T19:48:51.706Z,64.24
2019-03-25T19:51:20.198Z,64.25
2019-03-25T19:53:48.690Z,63.99
2019-03-25T19:56:17.181Z,63.56
2019-03-25T19:58:45.666Z,63.49
2019-03-25T20:01:14.177Z,63.27
2019-03-25T20:03:42.780Z,63.14
2019-03-25T20:06:11.308Z,63.03
2019-03-25T20:08:39.889Z,63.29
2019-03-25T20:11:08.433Z,62.46
2019-03-25T20:13:36.968Z,62.53
2019-03-25T20:16:05.505Z,62.77
2019-03-25T20:18:33.991Z,63.22
2019-03-25T20:21:04.863Z,63.21
2019-03-25T20:23:33.338Z,62.89
2019-03-25T20:26:01.907Z,63.16
2019-03-25T20:28:31.002Z,63.97
2019-03-25T20:30:59.493Z,64.86
2019-03-25T20:33:27.950Z,64.44
2019-03-25T20:35:56.409Z,65.39
2019-03-25T20:38:25.140Z,65.92
2019-03-25T20:40:53.583Z,66.08
2019-03-25T20:43:22.043Z,66.75
2019-03-25T20:45:50.528Z,66.46
2019-03-25T20:48:19.006Z,67.61
2019-03-25T20:50:47.521Z,66.75
2019-03-25T20:53:15.993Z,66.12
2019-03-25T20:55:45.555Z,65.99
2019-03-25T20:58:14.048Z,65.84
2019-03-25T21:00:53.367Z,65.74
2019-03-25T21:03:21.890Z,66.10
2019-03-25T21:05:50.394Z,66.96
2019-03-25T21:08:19.055Z,67.28
2019-03-25T21:10:47.650Z,67.80
2019-03-25T21:13:16.225Z,67.77
2019-03-25T21:15:44.808Z,67.10
2019-03-25T21:18:13.351Z,66.06
2019-03-25T21:20:41.920Z,67.50
2019-03-25T21:23:10.356Z,66.42
2019-03-25T21:25:38.858Z,67.63
2019-03-25T21:28:07.420Z,67.86
2019-03-25T21:30:47.289Z,67.88
2019-03-25T21:33:06.375Z,69.81
2019-03-25T21:35:34.880Z,69.03
2019-03-25T21:38:03.547Z,68.79
2019-03-25T21:40:32.124Z,71.07
2019-03-25T21:43:00.705Z,69.32
2019-03-25T21:45:29.174Z,68.36
2019-03-25T21:47:57.678Z,68.42
2019-03-25T21:50:26.142Z,68.94
2019-03-25T21:52:54.620Z,67.71
2019-03-25T21:55:23.174Z,66.64
2019-03-25T21:57:51.670Z,67.39
2019-03-25T22:00:21.150Z,68.88
2019-03-25T22:02:49.652Z,68.45
2019-03-25T22:05:18.187Z,68.52
2019-03-25T22:07:46.687Z,69.33
2019-03-25T22:10:15.324Z,68.66
2019-03-25T22:12:43.820Z,67.98
2019-03-25T22:15:12.755Z,67.16
2019-03-25T22:17:41.243Z,68.64
2019-03-25T22:20:10.755Z,68.08
2019-03-25T22:22:39.287Z,68.37
2019-03-25T22:25:09.422Z,68.65
2019-03-25T22:27:37.893Z,69.08
2019-03-25T22:30:08.128Z,69.17
2019-03-25T22:32:36.664Z,68.93
2019-03-25T22:35:06.386Z,70.44
2019-03-25T22:37:35.236Z,71.00
2019-03-25T22:40:05.481Z,70.60
2019-03-25T22:42:34.028Z,70.58
2019-03-25T22:45:03.416Z,70.40
2019-03-25T22:47:31.911Z,70.92
2019-03-25T22:50:00.494Z,70.58
2019-03-25T22:52:28.958Z,70.25
2019-03-25T22:54:57.429Z,70.36
2019-03-25T22:57:25.918Z,70.44
2019-03-25T22:59:54.382Z,70.82
2019-03-25T23:02:22.881Z,70.18
2019-03-25T23:04:51.348Z,69.12
2019-03-25T23:07:19.846Z,68.79
2019-03-25T23:09:48.309Z,68.99
2019-03-25T23:12:16.837Z,68.82
2019-03-25T23:14:45.270Z,71.29
2019-03-25T23:17:13.763Z,72.75
2019-03-25T23:19:43.303Z,72.71
2019-03-25T23:22:11.773Z,72.61
2019-03-25T23:24:40.240Z,72.15
2019-03-25T23:27:08.734Z,71.14
2019-03-25T23:29:37.192Z,69.84
2019-03-25T23:32:05.686Z,70.63
2019-03-25T23:34:34.149Z,70.16
2019-03-25T23:37:02.659Z,69.81
2019-03-25T23:39:31.123Z,69.78
2019-03-25T23:41:59.694Z,69.61
2019-03-25T23:44:28.167Z,69.84
2019-03-25T23:46:56.648Z,70.06
2019-03-25T23:49:25.129Z,70.53
2019-03-25T23:51:53.738Z,70.78
2019-03-25T23:54:22.286Z,69.37
2019-03-25T23:56:50.790Z,69.87
2019-03-25T23:59:19.288Z,70.09
